Time;durP1;ratioP1;P1;durP2;ratioP2;P2;SDS_P1;SDS_P2;PMS_P1;PMS_P2;Temp;Humidity;BMP_temperature;BMP_pressure;BME280_temperature;BME280_humidity;BME280_pressure;Samples;Min_cycle;Max_cycle;Signal;HPM_P1;HPM_P2
2023/03/29 00:01:13;;;;;;;3.58;1.50;;;16.90;98.00;;;;;;5077580;28;20095;-84
2023/03/29 00:03:42;;;;;;;3.20;1.50;;;16.90;98.00;;;;;;5063380;28;20040;-84
2023/03/29 00:06:13;;;;;;;2.92;1.50;;;16.90;98.10;;;;;;5064880;28;20312;-87
2023/03/29 00:08:40;;;;;;;3.92;1.67;;;16.90;98.10;;;;;;5064790;28;20057;-84
2023/03/29 00:11:07;;;;;;;2.75;1.50;;;16.90;98.10;;;;;;5081448;28;20323;-84
2023/03/29 00:13:42;;;;;;;3.28;1.30;;;16.90;98.20;;;;;;5065689;28;20166;-84
2023/03/29 00:16:08;;;;;;;2.70;1.50;;;16.90;98.20;;;;;;5064822;28;20331;-85
2023/03/29 00:18:44;;;;;;;2.85;1.48;;;16.90;98.10;;;;;;5081020;28;20028;-85
2023/03/29 00:21:13;;;;;;;3.65;1.60;;;16.80;98.10;;;;;;5064882;28;20153;-85
2023/03/29 00:23:46;;;;;;;4.18;1.73;;;16.90;98.10;;;;;;5081749;28;20036;-84
2023/03/29 00:26:15;;;;;;;3.95;1.60;;;16.90;98.20;;;;;;5048382;28;20039;-84
2023/03/29 00:28:46;;;;;;;3.05;1.23;;;16.90;98.30;;;;;;5081386;28;20028;-84
2023/03/29 00:31:14;;;;;;;2.50;1.50;;;16.90;98.40;;;;;;5048223;28;20047;-85
2023/03/29 00:34:00;;;;;;;3.83;1.60;;;17.00;98.40;;;;;;5052142;28;20432;-84
2023/03/29 00:36:48;;;;;;;3.05;1.48;;;17.00;98.50;;;;;;5064705;28;20598;-84
2023/03/29 00:39:21;;;;;;;4.65;1.60;;;17.10;98.50;;;;;;5063940;28;20328;-85
2023/03/29 00:41:49;;;;;;;2.67;1.42;;;17.10;98.50;;;;;;5064435;28;20028;-84
2023/03/29 00:44:55;;;;;;;3.25;1.42;;;17.20;98.50;;;;;;5048223;28;20032;-84
2023/03/29 00:47:41;;;;;;;2.78;1.40;;;17.30;98.50;;;;;;5047554;28;20058;-84
2023/03/29 00:50:31;;;;;;;3.67;1.45;;;17.30;98.50;;;;;;5064095;28;20032;-84
2023/03/29 00:53:31;;;;;;;2.33;1.30;;;17.40;98.50;;;;;;5048266;28;20469;-85
2023/03/29 00:56:10;;;;;;;2.30;1.30;;;17.50;98.40;;;;;;5081157;28;20039;-85
2023/03/29 00:58:47;;;;;;;1.88;1.20;;;17.50;98.50;;;;;;5064293;28;20330;-84
2023/03/29 01:01:18;;;;;;;3.65;1.35;;;17.60;98.40;;;;;;5080063;28;20048;-88
2023/03/29 01:04:07;;;;;;;2.70;1.48;;;17.60;98.40;;;;;;5064194;28;20024;-84
2023/03/29 01:06:44;;;;;;;4.75;1.38;;;17.70;98.30;;;;;;5063697;28;20592;-84
2023/03/29 01:09:29;;;;;;;3.97;1.40;;;17.70;98.40;;;;;;5080256;28;20063;-84
2023/03/29 01:12:24;;;;;;;2.60;1.58;;;17.80;98.30;;;;;;5052209;28;20055;-85
2023/03/29 01:15:14;;;;;;;3.60;1.48;;;17.80;98.30;;;;;;5049182;28;20093;-86
2023/03/29 01:17:48;;;;;;;3.88;1.50;;;17.90;98.20;;;;;;5047234;28;20427;-85
2023/03/29 01:20:56;;;;;;;2.67;1.30;;;17.90;98.20;;;;;;5046413;28;20086;-84
2023/03/29 01:23:42;;;;;;;3.17;1.50;;;18.00;98.00;;;;;;5079840;28;20278;-85
2023/03/29 01:26:32;;;;;;;3.47;1.40;;;18.00;98.00;;;;;;5047828;28;20353;-86
2023/03/29 01:29:37;;;;;;;2.78;1.30;;;18.10;98.00;;;;;;5046479;28;20457;-84
2023/03/29 01:32:36;;;;;;;3.05;1.55;;;18.20;97.90;;;;;;5043215;28;20036;-84
2023/03/29 01:35:14;;;;;;;3.58;1.40;;;18.20;97.80;;;;;;5062809;28;20032;-84
2023/03/29 01:38:07;;;;;;;2.85;1.50;;;18.20;97.80;;;;;;5063282;28;20441;-85
2023/03/29 01:40:33;;;;;;;2.28;1.30;;;18.30;97.80;;;;;;5049491;28;20044;-84
2023/03/29 01:43:24;;;;;;;3.42;1.30;;;18.30;97.70;;;;;;5046877;28;20039;-85
2023/03/29 01:46:06;;;;;;;2.80;1.42;;;18.40;97.60;;;;;;5079580;28;20419;-84
2023/03/29 01:48:53;;;;;;;3.13;1.25;;;18.30;97.50;;;;;;5045738;28;20051;-84
2023/03/29 01:51:36;;;;;;;2.22;1.10;;;18.40;97.40;;;;;;5062857;28;20034;-85
2023/03/29 01:54:19;;;;;;;2.97;1.27;;;18.40;97.40;;;;;;5062806;28;20032;-84
2023/03/29 01:56:47;;;;;;;3.42;1.50;;;18.40;97.30;;;;;;5079392;28;20028;-84
2023/03/29 01:59:21;;;;;;;3.83;1.60;;;18.40;97.40;;;;;;5046703;28;20419;-84
2023/03/29 02:01:58;;;;;;;1.63;1.15;;;18.50;97.30;;;;;;5062668;28;20385;-84
2023/03/29 02:04:36;;;;;;;2.10;1.17;;;18.50;97.30;;;;;;5062735;28;20326;-84
2023/03/29 02:07:12;;;;;;;2.13;1.10;;;18.50;97.20;;;;;;5079751;28;20024;-84
2023/03/29 02:09:50;;;;;;;;;;;;;;;;;;;;;
2023/03/29 02:12:19;;;;;;;2.45;1.20;;;18.50;97.20;;;;;;5059153;28;20032;-84
2023/03/29 02:14:45;;;;;;;3.10;1.25;;;18.50;97.20;;;;;;5026097;28;20031;-84
2023/03/29 02:17:22;;;;;;;3.08;1.42;;;18.60;97.20;;;;;;5043414;28;20077;-84
2023/03/29 02:20:00;;;;;;;3.03;1.17;;;18.60;97.10;;;;;;5025410;28;20043;-85
2023/03/29 02:22:55;;;;;;;1.73;1.10;;;18.60;97.10;;;;;;5059118;28;20033;-84
2023/03/29 02:25:23;;;;;;;1.98;1.13;;;18.60;97.10;;;;;;5041342;28;20123;-90
2023/03/29 02:27:51;;;;;;;2.42;1.20;;;18.60;97.10;;;;;;5041932;28;20072;-84
2023/03/29 02:31:06;;;;;;;2.33;1.20;;;18.60;97.10;;;;;;5046770;28;20031;-84
2023/03/29 02:33:50;;;;;;;2.75;1.00;;;18.70;97.00;;;;;;5043103;28;20044;-85
2023/03/29 02:36:34;;;;;;;2.38;1.00;;;18.70;97.00;;;;;;5060033;28;20031;-86
2023/03/29 02:39:04;;;;;;;2.63;1.25;;;18.70;97.00;;;;;;5086091;28;20120;-85
2023/03/29 02:41:42;;;;;;;2.95;1.25;;;18.70;97.00;;;;;;5063394;28;20027;-84
2023/03/29 02:44:12;;;;;;;1.55;1.10;;;18.70;96.90;;;;;;5077883;28;20023;-86
2023/03/29 02:46:41;;;;;;;1.75;1.00;;;18.70;96.90;;;;;;5078043;28;20031;-84
2023/03/29 02:49:17;;;;;;;2.15;1.20;;;18.70;96.80;;;;;;5077715;28;20032;-84
2023/03/29 02:52:01;;;;;;;;;;;;;;;;;;;;;
2023/03/29 02:54:31;;;;;;;3.60;1.33;;;18.70;96.70;;;;;;5078075;28;20415;-85
2023/03/29 02:56:59;;;;;;;2.15;1.10;;;18.70;96.70;;;;;;5061216;28;20051;-86
2023/03/29 02:59:28;;;;;;;2.55;1.20;;;18.70;96.70;;;;;;5077420;28;20073;-90
2023/03/29 03:02:00;;;;;;;2.47;1.27;;;18.70;96.70;;;;;;5060775;28;20048;-84
2023/03/29 03:04:36;;;;;;;2.50;1.10;;;18.70;96.60;;;;;;5049200;28;20028;-84
2023/03/29 03:07:06;;;;;;;2.50;1.10;;;18.70;96.60;;;;;;5045328;28;20490;-84
2023/03/29 03:09:33;;;;;;;2.08;1.00;;;18.70;96.60;;;;;;5061082;28;20067;-84
2023/03/29 03:12:02;;;;;;;2.50;1.20;;;18.80;96.60;;;;;;5045050;28;20059;-84
2023/03/29 03:14:30;;;;;;;2.05;1.05;;;18.80;96.60;;;;;;5043150;28;20043;-84
2023/03/29 03:17:07;;;;;;;1.75;0.95;;;18.80;96.50;;;;;;5058034;28;20038;-84
2023/03/29 03:19:35;;;;;;;2.63;1.20;;;18.80;96.40;;;;;;5040410;28;20054;-84
2023/03/29 03:22:04;;;;;;;2.85;1.30;;;18.80;96.50;;;;;;5058042;28;20051;-85
2023/03/29 03:24:42;;;;;;;2.63;1.20;;;18.80;96.50;;;;;;5040923;28;20441;-84
2023/03/29 03:27:15;;;;;;;2.88;1.25;;;18.80;96.50;;;;;;5058349;28;20028;-85
2023/03/29 03:29:43;;;;;;;2.28;1.08;;;18.80;96.50;;;;;;5025755;28;20037;-84
2023/03/29 03:32:35;;;;;;;2.33;1.25;;;18.80;96.40;;;;;;5044462;28;20036;-84
2023/03/29 03:35:37;;;;;;;2.72;1.20;;;18.80;96.40;;;;;;5062396;28;20446;-85
2023/03/29 03:38:04;;;;;;;1.65;1.17;;;18.80;96.50;;;;;;5027017;28;20127;-84
2023/03/29 03:40:31;;;;;;;2.08;1.23;;;18.80;96.40;;;;;;5028598;28;20381;-84
2023/03/29 03:42:59;;;;;;;1.73;0.98;;;18.80;96.30;;;;;;5045761;28;20024;-85
2023/03/29 03:45:25;;;;;;;2.33;1.13;;;18.80;96.30;;;;;;5028819;28;20035;-84
2023/03/29 03:47:58;;;;;;;1.67;1.00;;;18.80;96.30;;;;;;5030104;28;20416;-87
2023/03/29 03:50:38;;;;;;;2.53;1.20;;;18.80;96.30;;;;;;5031740;28;20029;-84
2023/03/29 03:53:07;;;;;;;2.25;1.20;;;18.80;96.30;;;;;;5061493;28;20033;-84
2023/03/29 03:55:57;;;;;;;3.25;1.20;;;18.80;96.20;;;;;;5061583;28;20434;-85
2023/03/29 03:58:30;;;;;;;2.53;1.08;;;18.80;96.30;;;;;;5029104;28;20354;-85
2023/03/29 04:01:07;;;;;;;1.80;1.10;;;18.80;96.30;;;;;;5062566;28;20028;-84
2023/03/29 04:03:45;;;;;;;2.33;1.17;;;18.80;96.30;;;;;;5029396;28;20102;-84
2023/03/29 04:06:16;;;;;;;3.28;1.20;;;18.90;96.30;;;;;;5044636;28;20324;-84
2023/03/29 04:09:08;;;;;;;1.40;1.10;;;18.90;96.30;;;;;;5049682;28;20093;-84
2023/03/29 04:11:37;;;;;;;2.25;1.30;;;18.80;96.20;;;;;;5064629;28;20031;-85
2023/03/29 04:14:05;;;;;;;3.63;1.27;;;18.90;96.20;;;;;;5047707;28;20387;-84
2023/03/29 04:16:49;;;;;;;2.22;1.10;;;18.80;96.20;;;;;;5083791;28;20107;-85
2023/03/29 04:19:33;;;;;;;2.22;1.30;;;18.90;96.60;;;;;;5038150;28;20055;-85
2023/03/29 04:21:59;;;;;;;2.15;1.08;;;18.80;96.20;;;;;;5064599;28;20024;-84
2023/03/29 04:24:25;;;;;;;2.80;1.40;;;18.90;96.20;;;;;;5064388;28;20438;-84
2023/03/29 04:27:11;;;;;;;2.88;1.25;;;18.90;96.20;;;;;;5083374;28;20039;-85
2023/03/29 04:29:43;;;;;;;3.30;1.30;;;18.90;96.20;;;;;;5064888;28;20038;-83
2023/03/29 04:32:18;;;;;;;2.08;1.20;;;18.90;96.20;;;;;;5065610;28;20446;-84
2023/03/29 04:35:00;;;;;;;1.98;1.13;;;18.90;96.20;;;;;;5049100;28;20039;-85
2023/03/29 04:37:28;;;;;;;2.55;1.40;;;18.90;96.20;;;;;;5047809;28;20028;-84
2023/03/29 04:40:18;;;;;;;2.05;1.00;;;18.90;96.20;;;;;;5066293;28;20055;-85
2023/03/29 04:43:05;;;;;;;1.75;1.30;;;18.90;96.20;;;;;;5016807;28;20036;-85
2023/03/29 04:45:31;;;;;;;2.13;1.20;;;18.90;96.20;;;;;;5064095;28;20027;-87
2023/03/29 04:48:21;;;;;;;2.70;1.42;;;18.90;96.10;;;;;;5080285;28;20035;-86
2023/03/29 04:50:50;;;;;;;2.35;1.35;;;18.90;96.10;;;;;;5063628;28;20040;-85
2023/03/29 04:53:41;;;;;;;2.40;1.30;;;19.00;96.20;;;;;;5055978;28;20036;-86
2023/03/29 04:56:12;;;;;;;3.42;1.33;;;19.00;96.10;;;;;;5048992;28;20039;-84
2023/03/29 04:59:08;;;;;;;4.55;2.30;;;18.90;96.20;;;;;;5084271;28;20032;-82
2023/03/29 05:01:34;;;;;;;4.43;2.00;;;18.90;96.60;;;;;;5046861;28;20086;-82
2023/03/29 05:04:01;;;;;;;6.93;1.80;;;18.90;96.80;;;;;;5029726;28;20039;-86
2023/03/29 05:06:35;;;;;;;3.42;1.60;;;18.90;96.70;;;;;;5064839;28;20024;-90
2023/03/29 05:09:05;;;;;;;2.83;1.52;;;19.00;96.90;;;;;;5064924;28;20431;-88
2023/03/29 05:11:44;;;;;;;3.22;1.38;;;19.00;96.70;;;;;;5049714;28;20032;-85
2023/03/29 05:14:23;;;;;;;7.97;1.58;;;19.00;96.40;;;;;;5063555;28;20032;-87
2023/03/29 05:16:54;;;;;;;5.47;1.55;;;19.00;96.60;;;;;;5013798;28;20035;-85
2023/03/29 05:19:23;;;;;;;4.38;1.50;;;19.00;96.80;;;;;;5096809;28;20089;-88
2023/03/29 05:22:15;;;;;;;;;;;;;;;;;;;;;
2023/03/29 05:25:04;;;;;;;2.67;1.50;;;19.10;97.10;;;;;;5063800;28;20060;-80
2023/03/29 05:27:30;;;;;;;3.25;1.60;;;19.00;97.30;;;;;;5066197;28;20032;-77
2023/03/29 05:30:05;;;;;;;3.40;1.60;;;19.00;97.40;;;;;;5093351;28;20147;-79
2023/03/29 05:32:48;;;;;;;5.85;1.63;;;19.00;97.50;;;;;;5083588;28;20042;-78
2023/03/29 05:35:17;;;;;;;8.00;1.60;;;19.00;97.70;;;;;;5081518;28;20032;-76
2023/03/29 05:37:46;;;;;;;3.22;1.80;;;19.00;97.80;;;;;;5061576;28;20033;-75
2023/03/29 05:40:12;;;;;;;5.25;2.20;;;19.00;97.70;;;;;;5054379;28;20039;-76
2023/03/29 05:42:58;;;;;;;11.43;2.33;;;19.00;97.30;;;;;;5096698;28;20326;-74
2023/03/29 05:45:27;;;;;;;8.43;2.50;;;19.00;97.10;;;;;;5058572;28;20086;-73
2023/03/29 05:47:53;;;;;;;8.25;2.58;;;19.00;97.30;;;;;;5059193;28;20032;-79
2023/03/29 05:50:19;;;;;;;7.47;2.90;;;19.00;96.90;;;;;;5065144;28;20089;-78
2023/03/29 05:52:49;;;;;;;6.20;2.60;;;19.00;96.40;;;;;;5053244;28;20043;-81
2023/03/29 05:55:17;;;;;;;6.55;1.85;;;19.00;96.50;;;;;;5048756;28;20064;-84
2023/03/29 05:57:43;;;;;;;8.15;2.20;;;19.00;96.50;;;;;;5070485;28;20040;-78
2023/03/29 06:00:18;;;;;;;10.25;2.80;;;19.00;96.50;;;;;;5065613;28;20036;-79
2023/03/29 06:02:45;;;;;;;5.32;2.15;;;19.00;96.70;;;;;;5057689;28;20052;-74
2023/03/29 06:05:12;;;;;;;7.60;2.00;;;19.00;96.50;;;;;;5089306;28;20035;-78
2023/03/29 06:07:52;;;;;;;12.25;2.30;;;19.00;96.50;;;;;;5068652;28;20419;-72
2023/03/29 06:10:36;;;;;;;11.98;2.35;;;19.00;96.60;;;;;;5054276;28;20085;-72
2023/03/29 06:13:16;;;;;;;8.20;2.40;;;19.00;96.70;;;;;;5072364;28;20046;-72
2023/03/29 06:15:43;;;;;;;4.57;2.05;;;19.00;96.70;;;;;;5077249;28;20031;-71
2023/03/29 06:18:10;;;;;;;7.15;2.40;;;19.00;96.60;;;;;;5077891;28;20028;-71
2023/03/29 06:20:36;;;;;;;6.15;2.13;;;19.00;96.60;;;;;;5078209;28;20032;-71
2023/03/29 06:23:08;;;;;;;7.13;1.83;;;19.00;96.50;;;;;;5078625;28;20453;-72
2023/03/29 06:25:34;;;;;;;5.47;2.08;;;19.00;96.50;;;;;;5078576;28;20032;-72
2023/03/29 06:28:01;;;;;;;5.97;1.95;;;18.90;96.50;;;;;;5078187;28;20039;-72
2023/03/29 06:30:27;;;;;;;5.60;2.00;;;19.00;96.90;;;;;;5078521;28;20097;-72
2023/03/29 06:32:57;;;;;;;4.05;1.80;;;19.00;96.50;;;;;;5090688;28;20507;-72
2023/03/29 06:35:47;;;;;;;4.05;2.17;;;19.00;96.50;;;;;;5077927;28;20036;-77
2023/03/29 06:38:16;;;;;;;5.38;2.60;;;19.00;96.40;;;;;;5062568;28;20025;-74
2023/03/29 06:41:06;;;;;;;6.97;2.50;;;18.90;96.20;;;;;;5058459;28;20029;-73
2023/03/29 06:43:58;;;;;;;7.28;2.17;;;19.00;96.20;;;;;;5074480;28;20032;-74
2023/03/29 06:46:31;;;;;;;10.18;2.40;;;18.90;96.30;;;;;;5058304;28;20501;-76
2023/03/29 06:49:00;;;;;;;5.75;2.00;;;18.90;97.00;;;;;;5040157;28;20101;-75
2023/03/29 06:51:34;;;;;;;5.70;1.70;;;18.80;97.90;;;;;;5064291;28;20037;-78
2023/03/29 06:54:01;;;;;;;4.00;1.60;;;18.70;98.10;;;;;;5075553;28;20028;-77
2023/03/29 06:56:28;;;;;;;4.97;1.90;;;18.50;97.90;;;;;;5059445;28;20036;-76
2023/03/29 06:59:07;;;;;;;15.48;2.28;;;18.40;98.00;;;;;;5066505;28;20066;-74
2023/03/29 07:01:43;;;;;;;84.15;4.43;;;18.30;98.00;;;;;;5081321;28;20400;-80
2023/03/29 07:04:19;;;;;;;42.42;4.20;;;18.30;98.10;;;;;;5064983;28;20028;-78
2023/03/29 07:07:18;;;;;;;17.27;3.25;;;18.30;98.30;;;;;;5070438;28;20038;-75
2023/03/29 07:09:45;;;;;;;63.38;6.85;;;18.30;98.00;;;;;;5115881;28;20101;-76
2023/03/29 07:12:23;;;;;;;19.02;4.60;;;18.20;97.30;;;;;;5115404;28;20036;-77
2023/03/29 07:14:50;;;;;;;18.70;5.40;;;18.10;97.00;;;;;;5067591;28;20043;-78
2023/03/29 07:17:17;;;;;;;18.55;4.10;;;17.80;96.30;;;;;;5077809;28;20031;-78
2023/03/29 07:19:43;;;;;;;7.82;3.90;;;17.70;96.60;;;;;;5076836;28;20036;-78
2023/03/29 07:22:46;;;;;;;10.20;3.85;;;17.70;96.80;;;;;;5082394;28;20032;-79
2023/03/29 07:25:15;;;;;;;11.18;4.30;;;17.70;97.00;;;;;;5048288;28;20024;-75
2023/03/29 07:27:42;;;;;;;16.08;4.53;;;17.70;97.20;;;;;;5069812;28;20021;-75
2023/03/29 07:30:10;;;;;;;8.70;4.55;;;17.70;97.50;;;;;;5091526;28;20438;-75
2023/03/29 07:32:43;;;;;;;9.30;4.28;;;17.80;97.60;;;;;;5061485;28;20039;-75
2023/03/29 07:35:27;;;;;;;12.15;4.70;;;17.80;97.80;;;;;;5074660;28;20025;-75
2023/03/29 07:37:57;;;;;;;10.98;4.15;;;17.80;98.10;;;;;;5058914;28;20040;-75
2023/03/29 07:40:24;;;;;;;10.32;4.28;;;17.80;98.50;;;;;;5074404;28;20036;-75
2023/03/29 07:43:17;;;;;;;10.13;4.30;;;17.80;98.70;;;;;;5075258;28;20037;-75
2023/03/29 07:45:43;;;;;;;9.48;4.15;;;17.90;99.50;;;;;;5063066;28;20153;-78
2023/03/29 07:48:10;;;;;;;12.30;5.05;;;18.00;99.70;;;;;;5056417;28;20029;-75
2023/03/29 07:50:57;;;;;;;12.15;4.47;;;18.00;99.90;;;;;;5043474;28;20331;-74
2023/03/29 07:53:29;;;;;;;11.00;4.00;;;18.10;99.90;;;;;;5041144;28;20435;-74
2023/03/29 07:55:56;;;;;;;17.67;4.80;;;18.20;99.90;;;;;;5040378;28;20332;-75
2023/03/29 07:58:41;;;;;;;10.90;3.97;;;18.30;99.90;;;;;;5056777;28;20135;-75
2023/03/29 08:01:08;;;;;;;9.85;4.40;;;18.30;99.90;;;;;;5062666;28;20031;-75
2023/03/29 08:04:03;;;;;;;13.73;3.70;;;18.30;99.90;;;;;;5097969;28;20074;-78
2023/03/29 08:06:47;;;;;;;10.45;3.78;;;18.40;99.90;;;;;;5084605;28;20029;-80
2023/03/29 08:09:14;;;;;;;7.40;2.50;;;18.40;99.90;;;;;;5045190;28;20060;-75
2023/03/29 08:11:43;;;;;;;15.40;3.65;;;18.50;99.90;;;;;;5072431;28;20094;-78
2023/03/29 08:14:17;;;;;;;8.25;3.05;;;18.40;99.90;;;;;;5056934;28;20111;-78
2023/03/29 08:17:04;;;;;;;11.30;3.30;;;18.50;99.90;;;;;;5068095;28;20044;-77
2023/03/29 08:19:32;;;;;;;8.00;2.50;;;18.50;99.90;;;;;;5075727;28;20047;-79
2023/03/29 08:22:06;;;;;;;5.72;2.25;;;18.50;99.90;;;;;;5051021;28;20016;-80
2023/03/29 08:24:51;;;;;;;7.80;2.40;;;18.50;99.90;;;;;;5069125;28;20060;-83
2023/03/29 08:27:19;;;;;;;7.63;2.13;;;18.40;99.90;;;;;;5055813;28;20119;-82
2023/03/29 08:29:45;;;;;;;6.50;2.00;;;18.50;99.90;;;;;;5048487;28;20127;-78
2023/03/29 08:32:11;;;;;;;6.57;2.33;;;18.50;99.90;;;;;;5098076;28;20028;-81
2023/03/29 08:34:37;;;;;;;5.68;2.10;;;18.50;99.90;;;;;;5074607;28;20063;-81
2023/03/29 08:37:24;;;;;;;4.90;2.05;;;18.40;99.90;;;;;;5058845;28;20130;-80
2023/03/29 08:39:52;;;;;;;5.68;2.28;;;18.50;99.90;;;;;;5039899;28;20060;-80
2023/03/29 08:43:01;;;;;;;6.47;2.28;;;18.40;99.90;;;;;;5060141;28;20067;-81
2023/03/29 08:45:44;;;;;;;5.93;2.15;;;18.50;99.90;;;;;;5043445;28;20033;-81
2023/03/29 08:48:21;;;;;;;5.97;2.00;;;18.50;99.90;;;;;;5059028;28;20790;-79
2023/03/29 08:50:57;;;;;;;3.22;1.63;;;18.50;99.90;;;;;;5060099;28;20032;-86
2023/03/29 08:53:27;;;;;;;11.18;2.42;;;18.50;99.90;;;;;;5052259;28;20033;-86
2023/03/29 08:56:23;;;;;;;5.40;2.10;;;18.50;99.90;;;;;;5079262;28;20038;-81
2023/03/29 08:59:23;;;;;;;6.40;2.47;;;18.40;99.90;;;;;;5071534;28;20067;-80
2023/03/29 09:01:52;;;;;;;6.60;2.10;;;18.40;99.90;;;;;;5042984;28;20031;-81
2023/03/29 09:04:24;;;;;;;6.05;2.00;;;18.30;99.90;;;;;;5064677;28;20044;-81
2023/03/29 09:07:11;;;;;;;8.02;1.90;;;18.30;99.90;;;;;;5078710;28;20025;-81
2023/03/29 09:09:43;;;;;;;5.60;1.90;;;18.30;99.90;;;;;;5094212;28;20032;-82
2023/03/29 09:12:48;;;;;;;6.78;2.10;;;18.30;99.90;;;;;;5059864;28;20319;-82
2023/03/29 09:15:23;;;;;;;6.35;1.90;;;18.30;99.90;;;;;;5054434;28;20044;-81
2023/03/29 09:18:20;;;;;;;4.20;1.80;;;18.30;99.90;;;;;;5076552;28;20099;-81
2023/03/29 09:20:58;;;;;;;5.60;2.10;;;18.30;99.90;;;;;;5073357;28;20098;-80
2023/03/29 09:23:38;;;;;;;3.83;1.60;;;18.30;99.90;;;;;;5072815;28;20028;-91
2023/03/29 09:26:25;;;;;;;4.70;1.90;;;18.30;99.90;;;;;;5072272;28;20033;-91
2023/03/29 09:29:40;;;;;;;3.70;1.80;;;18.30;99.90;;;;;;5052961;28;20516;-88
2023/03/29 09:32:21;;;;;;;6.47;2.05;;;18.40;99.90;;;;;;5079195;28;20028;-86
2023/03/29 09:35:22;;;;;;;7.38;2.10;;;18.40;99.90;;;;;;5061885;28;20074;-85
2023/03/29 09:37:51;;;;;;;3.63;1.77;;;18.40;99.90;;;;;;5046881;28;20040;-81
2023/03/29 09:40:26;;;;;;;4.22;1.80;;;18.40;99.90;;;;;;5077033;28;20028;-91
2023/03/29 09:43:38;;;;;;;4.75;1.67;;;18.40;99.90;;;;;;5073689;28;20081;-80
2023/03/29 09:46:24;;;;;;;6.25;2.00;;;18.40;99.90;;;;;;5061128;28;20029;-87
2023/03/29 09:48:52;;;;;;;7.82;2.33;;;18.50;99.90;;;;;;5059163;28;20028;-85
2023/03/29 09:51:23;;;;;;;5.82;2.17;;;18.40;99.90;;;;;;5076278;28;20111;-82
2023/03/29 09:53:49;;;;;;;6.10;1.95;;;18.50;99.90;;;;;;5087387;28;20420;-85
2023/03/29 09:56:28;;;;;;;5.60;2.15;;;18.50;99.90;;;;;;5058708;28;20031;-90
2023/03/29 09:59:03;;;;;;;4.38;1.95;;;18.50;99.90;;;;;;5058761;28;20041;-92
2023/03/29 10:01:38;;;;;;;4.22;1.88;;;18.40;99.90;;;;;;5027958;28;20039;-86
2023/03/29 10:04:07;;;;;;;7.47;2.17;;;18.50;99.90;;;;;;5071306;28;20053;-86
2023/03/29 10:06:34;;;;;;;4.97;2.28;;;18.50;99.90;;;;;;5072909;28;20063;-86
2023/03/29 10:09:01;;;;;;;5.28;2.47;;;18.50;99.80;;;;;;5057174;28;20033;-86
2023/03/29 10:11:35;;;;;;;5.03;1.63;;;18.50;99.60;;;;;;5059055;28;20024;-88
2023/03/29 10:14:12;;;;;;;7.10;2.28;;;18.50;99.60;;;;;;5076318;28;20024;-86
2023/03/29 10:16:44;;;;;;;5.18;2.00;;;18.50;99.50;;;;;;5058795;28;20028;-86
2023/03/29 10:19:16;;;;;;;4.03;2.05;;;18.60;99.60;;;;;;5056961;28;20039;-84
2023/03/29 10:21:42;;;;;;;4.40;1.83;;;18.50;99.50;;;;;;5059123;28;20021;-83
2023/03/29 10:24:26;;;;;;;4.65;1.90;;;18.60;99.40;;;;;;5058639;28;20116;-85
2023/03/29 10:27:08;;;;;;;3.72;1.83;;;18.60;99.40;;;;;;5076221;28;20056;-84
2023/03/29 10:29:42;;;;;;;9.52;2.00;;;18.60;99.30;;;;;;5069841;28;20037;-84
2023/03/29 10:32:32;;;;;;;4.78;2.03;;;18.60;99.30;;;;;;5078820;28;20040;-89
2023/03/29 10:35:09;;;;;;;7.90;1.92;;;18.70;99.40;;;;;;5065297;28;20040;-84
2023/03/29 10:37:40;;;;;;;8.98;2.63;;;18.70;99.70;;;;;;5095789;28;20122;-84
2023/03/29 10:40:22;;;;;;;7.07;2.63;;;18.70;99.90;;;;;;5061390;28;20308;-85
2023/03/29 10:42:50;;;;;;;9.77;2.72;;;18.80;99.90;;;;;;5076163;28;20029;-85
2023/03/29 10:45:24;;;;;;;10.25;2.90;;;18.90;99.90;;;;;;5041275;28;20031;-83
2023/03/29 10:47:50;;;;;;;15.68;5.35;;;19.00;99.90;;;;;;5057064;28;20407;-79
2023/03/29 10:50:16;;;;;;;15.20;6.28;;;19.00;99.90;;;;;;5073707;28;20036;-80
2023/03/29 10:52:42;;;;;;;16.90;6.55;;;19.10;99.90;;;;;;5058264;28;20036;-86
2023/03/29 10:55:12;;;;;;;15.35;6.60;;;19.20;99.90;;;;;;5075702;28;20397;-85
2023/03/29 10:57:51;;;;;;;18.58;6.85;;;19.30;99.90;;;;;;5088833;28;20063;-92
2023/03/29 11:00:26;;;;;;;15.40;7.20;;;19.40;99.90;;;;;;5095689;28;20434;-84
2023/03/29 11:03:27;;;;;;;19.23;8.25;;;19.50;99.90;;;;;;5061204;28;20039;-81
2023/03/29 11:06:18;;;;;;;19.08;7.40;;;19.60;99.90;;;;;;5091873;28;20024;-84
2023/03/29 11:09:09;;;;;;;4.80;2.08;;;19.60;99.90;;;;;;5059609;28;20128;-82
2023/03/29 11:11:50;;;;;;;10.90;3.10;;;19.60;99.90;;;;;;5090341;28;20024;-82
2023/03/29 11:14:24;;;;;;;8.38;3.00;;;19.50;99.70;;;;;;5060121;28;20098;-83
2023/03/29 11:17:01;;;;;;;8.43;4.03;;;19.50;99.30;;;;;;5076517;28;20024;-83
2023/03/29 11:20:08;;;;;;;10.80;4.85;;;19.50;99.30;;;;;;5070185;28;20086;-80
2023/03/29 11:22:52;;;;;;;8.48;4.40;;;19.40;99.40;;;;;;5082246;28;20032;-82
2023/03/29 11:25:36;;;;;;;7.25;4.15;;;19.40;99.30;;;;;;5075206;28;20035;-83
2023/03/29 11:28:09;;;;;;;9.65;4.70;;;19.40;99.50;;;;;;5060682;28;20077;-83
2023/03/29 11:31:01;;;;;;;10.38;4.95;;;19.30;99.50;;;;;;5044298;28;20036;-82
2023/03/29 11:33:50;;;;;;;9.50;6.00;;;19.40;99.40;;;;;;5076100;28;20077;-82
2023/03/29 11:36:18;;;;;;;9.27;5.90;;;19.30;99.20;;;;;;5060364;28;20028;-83
2023/03/29 11:38:53;;;;;;;11.18;5.97;;;19.30;99.30;;;;;;5077379;28;20028;-82
2023/03/29 11:41:29;;;;;;;10.15;6.20;;;19.30;99.20;;;;;;5077689;28;20028;-83
2023/03/29 11:44:08;;;;;;;10.73;6.30;;;19.30;99.20;;;;;;5095361;28;20052;-83
2023/03/29 11:46:43;;;;;;;8.05;5.50;;;19.30;99.20;;;;;;5044685;28;20423;-82
2023/03/29 11:49:53;;;;;;;11.23;6.40;;;19.30;99.30;;;;;;5075966;28;20350;-83
2023/03/29 11:52:39;;;;;;;11.85;6.25;;;19.30;99.20;;;;;;5033045;28;20124;-83
2023/03/29 11:55:25;;;;;;;11.05;5.93;;;19.30;99.30;;;;;;5043720;28;20426;-83
2023/03/29 11:58:00;;;;;;;8.90;5.90;;;19.30;99.30;;;;;;5095189;28;20103;-83
2023/03/29 12:00:32;;;;;;;8.87;6.43;;;19.30;99.30;;;;;;5064472;28;20036;-82
2023/03/29 12:03:31;;;;;;;11.32;5.90;;;19.30;99.30;;;;;;5064172;28;20048;-83
2023/03/29 12:06:46;;;;;;;9.90;6.30;;;19.40;99.30;;;;;;5064897;28;20040;-82
2023/03/29 12:09:40;;;;;;;9.85;6.57;;;19.40;99.30;;;;;;5059394;28;20450;-84
2023/03/29 12:12:28;;;;;;;9.63;6.03;;;19.40;99.20;;;;;;5076720;28;20051;-83
2023/03/29 12:15:04;;;;;;;11.85;6.90;;;19.40;99.30;;;;;;5098802;28;20028;-81
2023/03/29 12:17:38;;;;;;;8.70;5.60;;;19.30;99.10;;;;;;5074720;28;20036;-80
2023/03/29 12:20:14;;;;;;;8.82;5.57;;;19.30;99.10;;;;;;5085452;28;20035;-79
2023/03/29 12:22:45;;;;;;;11.02;5.63;;;19.30;99.20;;;;;;5061483;28;20035;-82
2023/03/29 12:25:17;;;;;;;8.80;5.63;;;19.30;99.30;;;;;;5078315;28;20056;-87
2023/03/29 12:28:08;;;;;;;9.25;5.65;;;19.30;99.70;;;;;;5079855;28;20051;-86
2023/03/29 12:30:43;;;;;;;8.82;5.30;;;19.40;99.60;;;;;;5064169;28;20051;-83
2023/03/29 12:33:40;;;;;;;8.57;5.07;;;19.30;99.90;;;;;;5078827;28;20038;-84
2023/03/29 12:36:53;;;;;;;8.52;5.13;;;19.40;99.90;;;;;;5097404;28;20077;-79
2023/03/29 12:39:38;;;;;;;4.70;2.75;;;19.30;99.90;;;;;;5097860;28;20431;-79
2023/03/29 12:42:23;;;;;;;6.60;2.90;;;19.30;99.50;;;;;;5080313;28;20368;-78
2023/03/29 12:45:01;;;;;;;8.57;2.80;;;19.30;99.20;;;;;;5098690;28;20024;-79
2023/03/29 12:47:36;;;;;;;5.13;2.70;;;19.40;99.40;;;;;;5098123;28;20024;-78
2023/03/29 12:50:03;;;;;;;5.32;2.60;;;19.40;99.00;;;;;;5079238;28;20024;-79
2023/03/29 12:52:32;;;;;;;4.38;2.80;;;19.40;98.90;;;;;;5098204;28;20330;-78
2023/03/29 12:55:15;;;;;;;6.15;2.80;;;19.40;98.90;;;;;;5097940;28;20024;-79
2023/03/29 12:57:59;;;;;;;5.72;2.70;;;19.40;98.90;;;;;;5084911;28;20024;-79
2023/03/29 13:00:43;;;;;;;11.43;4.63;;;19.40;98.90;;;;;;5080094;28;20071;-83
2023/03/29 13:03:45;;;;;;;16.42;4.82;;;19.40;98.70;;;;;;5085798;28;20036;-84
2023/03/29 13:06:12;;;;;;;11.10;4.07;;;19.30;98.80;;;;;;5086935;28;20032;-86
2023/03/29 13:08:42;;;;;;;10.95;4.05;;;19.30;99.20;;;;;;5072118;28;20032;-84
2023/03/29 13:11:28;;;;;;;7.38;4.55;;;19.30;99.40;;;;;;5088780;28;20028;-87
2023/03/29 13:13:54;;;;;;;7.45;4.00;;;19.30;99.60;;;;;;5064065;28;20021;-84
2023/03/29 13:16:34;;;;;;;8.20;4.35;;;19.30;99.70;;;;;;5037445;28;20378;-82
2023/03/29 13:19:18;;;;;;;7.88;4.20;;;19.30;99.60;;;;;;5062615;28;20028;-86
2023/03/29 13:22:03;;;;;;;7.72;4.47;;;19.30;99.70;;;;;;5077735;28;20091;-87
2023/03/29 13:24:50;;;;;;;8.95;5.25;;;19.30;99.60;;;;;;5059665;28;20048;-85
2023/03/29 13:27:25;;;;;;;8.40;4.88;;;19.30;99.40;;;;;;5043566;28;20033;-84
2023/03/29 13:30:14;;;;;;;7.67;5.47;;;19.30;99.40;;;;;;5043317;28;20139;-85
2023/03/29 13:32:40;;;;;;;7.55;4.95;;;19.30;99.40;;;;;;5059700;28;20103;-86
2023/03/29 13:35:43;;;;;;;9.32;5.35;;;19.30;99.50;;;;;;5043005;28;20626;-85
2023/03/29 13:38:21;;;;;;;7.45;4.93;;;19.30;99.30;;;;;;5077454;28;20332;-86
2023/03/29 13:40:53;;;;;;;10.35;5.55;;;19.30;99.40;;;;;;5077344;28;20036;-85
2023/03/29 13:43:23;;;;;;;8.70;5.63;;;19.30;99.30;;;;;;5077361;28;20435;-88